sensor_id;sensor_type;location;lat;lon;timestamp;pressure;altitude;pressure_sealevel;temperature;humidity
66857;BME280;53766;50.280;19.160;2022-12-18T00:01:33;99836.97;;;15.67;41.17
66857;BME280;53766;50.280;19.160;2022-12-18T00:04:03;99829.13;;;15.65;41.13
66857;BME280;53766;50.280;19.160;2022-12-18T00:06:32;99843.41;;;15.64;41.19
66857;BME280;53766;50.280;19.160;2022-12-18T00:09:02;99840.75;;;15.64;41.13
66857;BME280;53766;50.280;19.160;2022-12-18T00:11:30;99835.59;;;15.62;41.12
66857;BME280;53766;50.280;19.160;2022-12-18T00:13:59;99844.56;;;15.61;41.14
66857;BME280;53766;50.280;19.160;2022-12-18T00:16:28;99846.22;;;15.62;40.73
66857;BME280;53766;50.280;19.160;2022-12-18T00:18:57;99847.22;;;15.61;41.01
66857;BME280;53766;50.280;19.160;2022-12-18T00:21:25;99853.81;;;15.57;41.09
66857;BME280;53766;50.280;19.160;2022-12-18T00:23:53;99853.63;;;15.59;40.92
66857;BME280;53766;50.280;19.160;2022-12-18T00:26:23;99852.13;;;15.56;41.14
66857;BME280;53766;50.280;19.160;2022-12-18T00:28:52;99853.81;;;15.57;40.99
66857;BME280;53766;50.280;19.160;2022-12-18T00:31:22;99853.81;;;15.57;40.92
66857;BME280;53766;50.280;19.160;2022-12-18T00:33:50;99851.31;;;15.56;41.10
66857;BME280;53766;50.280;19.160;2022-12-18T00:36:24;99855.78;;;15.55;41.14
66857;BME280;53766;50.280;19.160;2022-12-18T00:38:54;99855.78;;;15.55;41.09
66857;BME280;53766;50.280;19.160;2022-12-18T00:41:22;99857.63;;;15.55;40.91
66857;BME280;53766;50.280;19.160;2022-12-18T00:44:10;99863.88;;;15.54;41.02
66857;BME280;53766;50.280;19.160;2022-12-18T00:46:38;99863.19;;;15.52;40.98
66857;BME280;53766;50.280;19.160;2022-12-18T00:49:07;99863.06;;;15.53;41.06
66857;BME280;53766;50.280;19.160;2022-12-18T00:51:35;99877.16;;;15.54;41.11
66857;BME280;53766;50.280;19.160;2022-12-18T00:54:02;99879.00;;;15.53;41.06
66857;BME280;53766;50.280;19.160;2022-12-18T00:56:30;99873.69;;;15.53;40.97
66857;BME280;53766;50.280;19.160;2022-12-18T00:58:58;99872.84;;;15.53;40.99
66857;BME280;53766;50.280;19.160;2022-12-18T01:01:25;99878.00;;;15.54;41.15
66857;BME280;53766;50.280;19.160;2022-12-18T01:03:53;99885.81;;;15.56;41.10
66857;BME280;53766;50.280;19.160;2022-12-18T01:06:20;99896.31;;;15.57;41.07
66857;BME280;53766;50.280;19.160;2022-12-18T01:08:48;99902.44;;;15.58;41.14
66857;BME280;53766;50.280;19.160;2022-12-18T01:11:17;99907.75;;;15.58;41.11
66857;BME280;53766;50.280;19.160;2022-12-18T01:13:45;99909.41;;;15.59;41.28
66857;BME280;53766;50.280;19.160;2022-12-18T01:16:14;99904.09;;;15.59;40.96
66857;BME280;53766;50.280;19.160;2022-12-18T01:18:42;99910.94;;;15.61;41.19
66857;BME280;53766;50.280;19.160;2022-12-18T01:21:14;99904.97;;;15.59;41.20
66857;BME280;53766;50.280;19.160;2022-12-18T01:23:42;99904.97;;;15.59;41.02
66857;BME280;53766;50.280;19.160;2022-12-18T01:26:14;99911.91;;;15.60;41.09
66857;BME280;53766;50.280;19.160;2022-12-18T01:28:43;99916.41;;;15.60;41.00
66857;BME280;53766;50.280;19.160;2022-12-18T01:31:19;99920.03;;;15.59;41.01
66857;BME280;53766;50.280;19.160;2022-12-18T01:33:48;99913.63;;;15.61;40.97
66857;BME280;53766;50.280;19.160;2022-12-18T01:36:27;99911.09;;;15.60;41.14
66857;BME280;53766;50.280;19.160;2022-12-18T01:38:55;99908.56;;;15.58;41.12
66857;BME280;53766;50.280;19.160;2022-12-18T01:41:25;99903.28;;;15.58;40.82
66857;BME280;53766;50.280;19.160;2022-12-18T01:43:55;99916.41;;;15.60;41.10
66857;BME280;53766;50.280;19.160;2022-12-18T01:46:25;99912.25;;;15.57;41.08
66857;BME280;53766;50.280;19.160;2022-12-18T01:49:00;99930.50;;;15.60;40.97
66857;BME280;53766;50.280;19.160;2022-12-18T01:51:29;99932.47;;;15.58;41.09
66857;BME280;53766;50.280;19.160;2022-12-18T01:53:58;99932.34;;;15.60;41.02
66857;BME280;53766;50.280;19.160;2022-12-18T01:56:26;99929.00;;;15.58;41.08
66857;BME280;53766;50.280;19.160;2022-12-18T01:58:58;99929.81;;;15.58;41.05
66857;BME280;53766;50.280;19.160;2022-12-18T02:01:28;99925.66;;;15.56;40.85
66857;BME280;53766;50.280;19.160;2022-12-18T02:04:21;99937.09;;;15.56;40.89
66857;BME280;53766;50.280;19.160;2022-12-18T02:12:46;99956.38;;;15.58;40.84
66857;BME280;53766;50.280;19.160;2022-12-18T02:15:24;99967.31;;;15.55;41.02
66857;BME280;53766;50.280;19.160;2022-12-18T02:18:01;99970.66;;;15.57;41.04
66857;BME280;53766;50.280;19.160;2022-12-18T02:20:36;99971.50;;;15.58;40.80
66857;BME280;53766;50.280;19.160;2022-12-18T02:23:24;99977.63;;;15.58;40.78
66857;BME280;53766;50.280;19.160;2022-12-18T02:26:26;99980.41;;;15.57;40.71
66857;BME280;53766;50.280;19.160;2022-12-18T02:31:30;99984.91;;;15.56;40.95
66857;BME280;53766;50.280;19.160;2022-12-18T02:34:04;99982.25;;;15.56;40.79
66857;BME280;53766;50.280;19.160;2022-12-18T02:36:36;99979.06;;;15.53;40.79
66857;BME280;53766;50.280;19.160;2022-12-18T02:39:07;99976.25;;;15.54;41.05
66857;BME280;53766;50.280;19.160;2022-12-18T02:41:36;99979.91;;;15.53;41.08
66857;BME280;53766;50.280;19.160;2022-12-18T02:44:10;99981.56;;;15.54;40.49
66857;BME280;53766;50.280;19.160;2022-12-18T02:46:41;99988.56;;;15.55;40.71
66857;BME280;53766;50.280;19.160;2022-12-18T03:00:59;100009.25;;;15.52;40.72
66857;BME280;53766;50.280;19.160;2022-12-18T03:06:23;100019.03;;;15.51;40.78
66857;BME280;53766;50.280;19.160;2022-12-18T03:09:12;100026.31;;;15.49;40.83
66857;BME280;53766;50.280;19.160;2022-12-18T03:11:47;100028.84;;;15.51;40.65
66857;BME280;53766;50.280;19.160;2022-12-18T03:14:37;100030.50;;;15.52;40.67
66857;BME280;53766;50.280;19.160;2022-12-18T03:17:11;100024.63;;;15.48;40.91
66857;BME280;53766;50.280;19.160;2022-12-18T03:19:40;100026.31;;;15.49;40.90
66857;BME280;53766;50.280;19.160;2022-12-18T03:22:09;100036.09;;;15.49;40.71
66857;BME280;53766;50.280;19.160;2022-12-18T03:24:37;100035.25;;;15.48;40.79
66857;BME280;53766;50.280;19.160;2022-12-18T03:27:11;100026.31;;;15.49;40.63
66857;BME280;53766;50.280;19.160;2022-12-18T03:29:45;100023.78;;;15.48;40.78
66857;BME280;53766;50.280;19.160;2022-12-18T03:32:23;100029.81;;;15.50;40.76
66857;BME280;53766;50.280;19.160;2022-12-18T03:34:55;100026.31;;;15.49;40.66
66857;BME280;53766;50.280;19.160;2022-12-18T03:37:24;100032.75;;;15.47;40.73
66857;BME280;53766;50.280;19.160;2022-12-18T03:39:52;100026.63;;;15.46;40.52
66857;BME280;53766;50.280;19.160;2022-12-18T03:42:56;100037.25;;;15.46;40.75
66857;BME280;53766;50.280;19.160;2022-12-18T03:45:34;100050.53;;;15.46;40.58
66857;BME280;53766;50.280;19.160;2022-12-18T03:50:47;100047.00;;;15.46;40.67
66857;BME280;53766;50.280;19.160;2022-12-18T03:53:49;100047.88;;;15.46;40.52
66857;BME280;53766;50.280;19.160;2022-12-18T03:56:22;100056.78;;;15.45;40.49
66857;BME280;53766;50.280;19.160;2022-12-18T03:58:53;100057.63;;;15.46;40.39
66857;BME280;53766;50.280;19.160;2022-12-18T04:01:26;100060.44;;;15.44;40.50
66857;BME280;53766;50.280;19.160;2022-12-18T04:03:56;100062.09;;;15.45;40.44
66857;BME280;53766;50.280;19.160;2022-12-18T04:06:28;100069.38;;;15.43;40.52
66857;BME280;53766;50.280;19.160;2022-12-18T04:08:57;100066.72;;;15.43;40.43
66857;BME280;53766;50.280;19.160;2022-12-18T04:11:25;100073.03;;;15.42;40.68
66857;BME280;53766;50.280;19.160;2022-12-18T04:13:57;100062.41;;;15.42;40.41
66857;BME280;53766;50.280;19.160;2022-12-18T04:16:26;100070.38;;;15.42;40.61
66857;BME280;53766;50.280;19.160;2022-12-18T04:18:53;100080.28;;;15.40;40.64
66857;BME280;53766;50.280;19.160;2022-12-18T04:21:21;100081.97;;;15.41;40.63
66857;BME280;53766;50.280;19.160;2022-12-18T04:23:49;100084.91;;;15.38;40.72
66857;BME280;53766;50.280;19.160;2022-12-18T04:26:17;100077.78;;;15.38;40.63
66857;BME280;53766;50.280;19.160;2022-12-18T04:28:44;100075.94;;;15.39;40.42
66857;BME280;53766;50.280;19.160;2022-12-18T04:31:12;100094.53;;;15.39;40.30
66857;BME280;53766;50.280;19.160;2022-12-18T04:33:40;100092.88;;;15.38;40.67
66857;BME280;53766;50.280;19.160;2022-12-18T04:36:08;100097.88;;;15.41;40.33
66857;BME280;53766;50.280;19.160;2022-12-18T04:38:35;100098.19;;;15.38;40.63
66857;BME280;53766;50.280;19.160;2022-12-18T04:41:04;100101.53;;;15.40;40.59
66857;BME280;53766;50.280;19.160;2022-12-18T04:43:31;100101.81;;;15.37;40.46
66857;BME280;53766;50.280;19.160;2022-12-18T04:46:07;100112.28;;;15.38;40.46
66857;BME280;53766;50.280;19.160;2022-12-18T04:48:36;100114.13;;;15.38;40.42
66857;BME280;53766;50.280;19.160;2022-12-18T04:51:04;100119.44;;;15.38;40.40
66857;BME280;53766;50.280;19.160;2022-12-18T04:53:32;100110.47;;;15.39;40.28
66857;BME280;53766;50.280;19.160;2022-12-18T04:56:09;100123.03;;;15.37;40.55
66857;BME280;53766;50.280;19.160;2022-12-18T04:58:37;100137.31;;;15.36;40.55
66857;BME280;53766;50.280;19.160;2022-12-18T05:01:05;100135.63;;;15.35;40.44
66857;BME280;53766;50.280;19.160;2022-12-18T05:03:34;100134.78;;;15.34;40.76
66857;BME280;53766;50.280;19.160;2022-12-18T05:06:04;100137.31;;;15.36;40.43
66857;BME280;53766;50.280;19.160;2022-12-18T05:08:32;100144.28;;;15.37;40.21
66857;BME280;53766;50.280;19.160;2022-12-18T05:11:08;100133.81;;;15.35;40.37
66857;BME280;53766;50.280;19.160;2022-12-18T05:13:37;100139.28;;;15.34;40.31
66857;BME280;53766;50.280;19.160;2022-12-18T05:16:06;100140.94;;;15.35;40.21
66857;BME280;53766;50.280;19.160;2022-12-18T05:18:36;100144.44;;;15.35;40.25
66857;BME280;53766;50.280;19.160;2022-12-18T05:21:03;100144.56;;;15.34;40.50
66857;BME280;53766;50.280;19.160;2022-12-18T05:23:31;100156.84;;;15.35;40.42
66857;BME280;53766;50.280;19.160;2022-12-18T05:26:01;100162.16;;;15.35;40.32
66857;BME280;53766;50.280;19.160;2022-12-18T05:28:30;100160.63;;;15.32;40.39
66857;BME280;53766;50.280;19.160;2022-12-18T05:31:00;100158.56;;;15.36;40.55
66857;BME280;53766;50.280;19.160;2022-12-18T05:33:33;100165.81;;;15.34;40.50
66857;BME280;53766;50.280;19.160;2022-12-18T05:36:04;100158.81;;;15.33;40.20
66857;BME280;53766;50.280;19.160;2022-12-18T05:38:34;100158.13;;;15.31;40.15
66857;BME280;53766;50.280;19.160;2022-12-18T05:41:03;100161.34;;;15.34;40.32
66857;BME280;53766;50.280;19.160;2022-12-18T05:43:31;100165.81;;;15.34;40.40
66857;BME280;53766;50.280;19.160;2022-12-18T05:46:03;100172.78;;;15.35;40.45
66857;BME280;53766;50.280;19.160;2022-12-18T05:48:30;100167.47;;;15.35;40.43
66857;BME280;53766;50.280;19.160;2022-12-18T05:51:07;100179.78;;;15.36;40.29
66857;BME280;53766;50.280;19.160;2022-12-18T05:53:35;100177.13;;;15.36;40.33
66857;BME280;53766;50.280;19.160;2022-12-18T05:56:06;100173.66;;;15.35;40.25
66857;BME280;53766;50.280;19.160;2022-12-18T05:58:34;100174.47;;;15.36;40.12
66857;BME280;53766;50.280;19.160;2022-12-18T06:01:14;100174.63;;;15.34;40.40
66857;BME280;53766;50.280;19.160;2022-12-18T06:03:43;100188.72;;;15.35;40.44
66857;BME280;53766;50.280;19.160;2022-12-18T06:06:17;100171.97;;;15.34;40.22
66857;BME280;53766;50.280;19.160;2022-12-18T06:08:45;100179.91;;;15.34;40.04
66857;BME280;53766;50.280;19.160;2022-12-18T06:11:17;100178.09;;;15.35;40.30
66857;BME280;53766;50.280;19.160;2022-12-18T06:13:45;100184.41;;;15.34;40.27
66857;BME280;53766;50.280;19.160;2022-12-18T06:16:13;100187.06;;;15.34;40.08
66857;BME280;53766;50.280;19.160;2022-12-18T06:18:41;100181.75;;;15.34;40.07
66857;BME280;53766;50.280;19.160;2022-12-18T06:21:08;100188.72;;;15.35;40.05
66857;BME280;53766;50.280;19.160;2022-12-18T06:23:36;100187.06;;;15.34;40.18
66857;BME280;53766;50.280;19.160;2022-12-18T06:26:06;100192.38;;;15.34;40.00
66857;BME280;53766;50.280;19.160;2022-12-18T06:28:33;100202.16;;;15.33;40.06
66857;BME280;53766;50.280;19.160;2022-12-18T06:31:03;100200.31;;;15.34;40.11
66857;BME280;53766;50.280;19.160;2022-12-18T06:33:31;100201.28;;;15.33;40.12
66857;BME280;53766;50.280;19.160;2022-12-18T06:36:10;100210.25;;;15.32;40.36
66857;BME280;53766;50.280;19.160;2022-12-18T06:38:41;100218.91;;;15.34;40.23
66857;BME280;53766;50.280;19.160;2022-12-18T06:41:11;100215.44;;;15.33;40.47
66857;BME280;53766;50.280;19.160;2022-12-18T06:43:39;100216.25;;;15.34;40.40
66857;BME280;53766;50.280;19.160;2022-12-18T06:46:08;100229.53;;;15.34;40.19
66857;BME280;53766;50.280;19.160;2022-12-18T06:48:35;100234.00;;;15.33;40.29
66857;BME280;53766;50.280;19.160;2022-12-18T06:51:03;100229.53;;;15.34;40.16
66857;BME280;53766;50.280;19.160;2022-12-18T06:53:31;100237.50;;;15.34;40.07
66857;BME280;53766;50.280;19.160;2022-12-18T06:56:04;100234.00;;;15.33;40.37
66857;BME280;53766;50.280;19.160;2022-12-18T06:58:38;100247.13;;;15.35;40.29
66857;BME280;53766;50.280;19.160;2022-12-18T07:01:08;100250.78;;;15.34;40.59
66857;BME280;53766;50.280;19.160;2022-12-18T07:03:37;100254.38;;;15.33;40.68
66857;BME280;53766;50.280;19.160;2022-12-18T07:06:05;100262.22;;;15.34;40.86
66857;BME280;53766;50.280;19.160;2022-12-18T07:08:33;100260.56;;;15.33;40.60
66857;BME280;53766;50.280;19.160;2022-12-18T07:11:03;100256.06;;;15.34;40.91
66857;BME280;53766;50.280;19.160;2022-12-18T07:13:31;100257.75;;;15.35;40.78
66857;BME280;53766;50.280;19.160;2022-12-18T07:16:05;100275.63;;;15.33;40.59
66857;BME280;53766;50.280;19.160;2022-12-18T07:18:42;100269.34;;;15.34;40.85
66857;BME280;53766;50.280;19.160;2022-12-18T07:21:12;100277.31;;;15.34;40.76
66857;BME280;53766;50.280;19.160;2022-12-18T07:23:40;100286.25;;;15.33;40.92
66857;BME280;53766;50.280;19.160;2022-12-18T07:26:11;100288.75;;;15.34;41.04
66857;BME280;53766;50.280;19.160;2022-12-18T07:28:40;100289.88;;;15.32;41.17
66857;BME280;53766;50.280;19.160;2022-12-18T07:31:11;100297.72;;;15.33;40.79
66857;BME280;53766;50.280;19.160;2022-12-18T07:33:39;100311.13;;;15.32;41.01
66857;BME280;53766;50.280;19.160;2022-12-18T07:36:09;100302.16;;;15.33;41.05
66857;BME280;53766;50.280;19.160;2022-12-18T07:38:37;100305.53;;;15.35;40.80
66857;BME280;53766;50.280;19.160;2022-12-18T07:41:07;100301.91;;;15.36;40.98
66857;BME280;53766;50.280;19.160;2022-12-18T07:43:35;100299.38;;;15.34;40.93
66857;BME280;53766;50.280;19.160;2022-12-18T07:46:04;100308.19;;;15.35;40.88
66857;BME280;53766;50.280;19.160;2022-12-18T07:48:32;100308.34;;;15.33;41.09
66857;BME280;53766;50.280;19.160;2022-12-18T07:51:01;100310.13;;;15.33;40.76
66857;BME280;53766;50.280;19.160;2022-12-18T07:53:30;100309.19;;;15.34;40.72
66857;BME280;53766;50.280;19.160;2022-12-18T07:55:59;100305.53;;;15.35;40.76
66857;BME280;53766;50.280;19.160;2022-12-18T07:58:47;100305.81;;;15.32;40.81
66857;BME280;53766;50.280;19.160;2022-12-18T08:01:15;100314.75;;;15.31;40.80
66857;BME280;53766;50.280;19.160;2022-12-18T08:03:43;100312.09;;;15.31;40.61
66857;BME280;53766;50.280;19.160;2022-12-18T08:06:10;100302.34;;;15.31;40.33
66857;BME280;53766;50.280;19.160;2022-12-18T08:08:38;100313.09;;;15.30;40.63
66857;BME280;53766;50.280;19.160;2022-12-18T08:11:07;100308.59;;;15.30;40.45
66857;BME280;53766;50.280;19.160;2022-12-18T08:13:35;100311.41;;;15.29;40.30
66857;BME280;53766;50.280;19.160;2022-12-18T08:16:05;100312.25;;;15.29;40.44
66857;BME280;53766;50.280;19.160;2022-12-18T08:18:35;100314.06;;;15.29;40.63
66857;BME280;53766;50.280;19.160;2022-12-18T08:21:14;100316.72;;;15.29;40.78
66857;BME280;53766;50.280;19.160;2022-12-18T08:23:42;100321.16;;;15.28;40.96
66857;BME280;53766;50.280;19.160;2022-12-18T08:26:11;100311.41;;;15.29;40.67
66857;BME280;53766;50.280;19.160;2022-12-18T08:28:39;100315.03;;;15.28;40.52
66857;BME280;53766;50.280;19.160;2022-12-18T08:31:07;100326.34;;;15.30;40.64
66857;BME280;53766;50.280;19.160;2022-12-18T08:33:36;100320.91;;;15.31;40.80
66857;BME280;53766;50.280;19.160;2022-12-18T08:36:06;100316.44;;;15.32;41.06
66857;BME280;53766;50.280;19.160;2022-12-18T08:38:34;100326.22;;;15.31;40.56
66857;BME280;53766;50.280;19.160;2022-12-18T08:41:03;100331.53;;;15.31;40.46
66857;BME280;53766;50.280;19.160;2022-12-18T08:43:32;100337.97;;;15.29;40.79
66857;BME280;53766;50.280;19.160;2022-12-18T08:46:20;100340.63;;;15.29;40.46
66857;BME280;53766;50.280;19.160;2022-12-18T08:48:50;100342.41;;;15.28;40.56
66857;BME280;53766;50.280;19.160;2022-12-18T08:51:18;100353.91;;;15.29;40.50
66857;BME280;53766;50.280;19.160;2022-12-18T08:53:46;100356.69;;;15.27;40.45
66857;BME280;53766;50.280;19.160;2022-12-18T08:56:14;100359.19;;;15.29;40.43
66857;BME280;53766;50.280;19.160;2022-12-18T08:58:42;100362.81;;;15.28;40.71
66857;BME280;53766;50.280;19.160;2022-12-18T09:01:11;100362.81;;;15.28;40.58
66857;BME280;53766;50.280;19.160;2022-12-18T09:03:39;100362.09;;;15.26;40.39
66857;BME280;53766;50.280;19.160;2022-12-18T09:06:07;100365.59;;;15.26;40.50
66857;BME280;53766;50.280;19.160;2022-12-18T09:08:35;100366.47;;;15.27;40.26
66857;BME280;53766;50.280;19.160;2022-12-18T09:11:04;100374.41;;;15.27;40.40
66857;BME280;53766;50.280;19.160;2022-12-18T09:13:32;100377.06;;;15.27;40.29
66857;BME280;53766;50.280;19.160;2022-12-18T09:15:59;100378.75;;;15.28;40.13
66857;BME280;53766;50.280;19.160;2022-12-18T09:18:26;100372.59;;;15.27;40.28
66857;BME280;53766;50.280;19.160;2022-12-18T09:20:54;100379.72;;;15.27;40.31
66857;BME280;53766;50.280;19.160;2022-12-18T09:23:22;100374.41;;;15.27;40.23
66857;BME280;53766;50.280;19.160;2022-12-18T09:25:49;100379.72;;;15.27;40.05
66857;BME280;53766;50.280;19.160;2022-12-18T09:28:18;100377.91;;;15.27;40.35
66857;BME280;53766;50.280;19.160;2022-12-18T09:30:48;100368.25;;;15.26;39.91
66857;BME280;53766;50.280;19.160;2022-12-18T09:33:16;100377.06;;;15.27;40.03
66857;BME280;53766;50.280;19.160;2022-12-18T09:35:44;100377.06;;;15.27;40.23
66857;BME280;53766;50.280;19.160;2022-12-18T09:38:15;100379.03;;;15.25;40.05
66857;BME280;53766;50.280;19.160;2022-12-18T09:40:48;100375.38;;;15.26;39.98
66857;BME280;53766;50.280;19.160;2022-12-18T09:43:24;100380.69;;;15.26;40.06
66857;BME280;53766;50.280;19.160;2022-12-18T09:45:59;100381.69;;;15.25;39.89
66857;BME280;53766;50.280;19.160;2022-12-18T09:48:34;100391.31;;;15.26;39.93
66857;BME280;53766;50.280;19.160;2022-12-18T09:51:09;100392.31;;;15.25;39.77
66857;BME280;53766;50.280;19.160;2022-12-18T09:53:41;100390.59;;;15.23;39.91
66857;BME280;53766;50.280;19.160;2022-12-18T09:56:16;100379.03;;;15.25;40.00
66857;BME280;53766;50.280;19.160;2022-12-18T09:58:53;100383.34;;;15.26;39.98
66857;BME280;53766;50.280;19.160;2022-12-18T10:01:22;100394.94;;;15.25;39.81
66857;BME280;53766;50.280;19.160;2022-12-18T10:03:54;100389.66;;;15.25;39.76
66857;BME280;53766;50.280;19.160;2022-12-18T10:06:49;100385.03;;;15.27;39.86
66857;BME280;53766;50.280;19.160;2022-12-18T10:12:23;100380.97;;;15.22;39.73
66857;BME280;53766;50.280;19.160;2022-12-18T10:14:57;100386.13;;;15.24;39.93
66857;BME280;53766;50.280;19.160;2022-12-18T10:17:52;100376.38;;;15.25;39.74
66857;BME280;53766;50.280;19.160;2022-12-18T10:20:49;100375.66;;;15.22;39.86
66857;BME280;53766;50.280;19.160;2022-12-18T10:26:03;100377.63;;;15.20;39.99
66857;BME280;53766;50.280;19.160;2022-12-18T10:28:32;100371.59;;;15.18;39.87
66857;BME280;53766;50.280;19.160;2022-12-18T10:31:00;100367.00;;;15.20;39.72
66857;BME280;53766;50.280;19.160;2022-12-18T10:33:30;100360.00;;;15.19;39.75
66857;BME280;53766;50.280;19.160;2022-12-18T10:35:59;100358.34;;;15.18;39.74
66857;BME280;53766;50.280;19.160;2022-12-18T10:38:28;100359.16;;;15.19;39.90
66857;BME280;53766;50.280;19.160;2022-12-18T10:41:24;100360.00;;;15.19;39.93
66857;BME280;53766;50.280;19.160;2022-12-18T10:44:16;100354.56;;;15.21;39.66
66857;BME280;53766;50.280;19.160;2022-12-18T10:46:46;100359.88;;;15.21;39.68
66857;BME280;53766;50.280;19.160;2022-12-18T10:49:20;100359.16;;;15.19;39.86
66857;BME280;53766;50.280;19.160;2022-12-18T10:51:48;100357.34;;;15.19;39.95
66857;BME280;53766;50.280;19.160;2022-12-18T10:54:22;100350.25;;;15.20;40.03
66857;BME280;53766;50.280;19.160;2022-12-18T10:56:50;100351.31;;;15.17;39.75
66857;BME280;53766;50.280;19.160;2022-12-18T10:59:18;100349.66;;;15.16;39.80
66857;BME280;53766;50.280;19.160;2022-12-18T11:01:58;100346.03;;;15.17;39.78
66857;BME280;53766;50.280;19.160;2022-12-18T11:04:30;100348.66;;;15.17;40.02
66857;BME280;53766;50.280;19.160;2022-12-18T11:07:06;100342.66;;;15.15;39.67
66857;BME280;53766;50.280;19.160;2022-12-18T11:09:39;100341.00;;;15.14;39.65
66857;BME280;53766;50.280;19.160;2022-12-18T11:14:46;100325.19;;;15.13;39.77
66857;BME280;53766;50.280;19.160;2022-12-18T11:17:35;100334.97;;;15.12;39.84
66857;BME280;53766;50.280;19.160;2022-12-18T11:20:05;100331.34;;;15.13;39.86
66857;BME280;53766;50.280;19.160;2022-12-18T11:22:37;100329.69;;;15.12;39.76
66857;BME280;53766;50.280;19.160;2022-12-18T11:28:25;100327.03;;;15.12;39.68
66857;BME280;53766;50.280;19.160;2022-12-18T11:30:47;100325.34;;;15.11;39.48
66857;BME280;53766;50.280;19.160;2022-12-18T11:33:19;100325.34;;;15.11;39.86
66857;BME280;53766;50.280;19.160;2022-12-18T11:36:00;100339.59;;;15.10;39.77
66857;BME280;53766;50.280;19.160;2022-12-18T11:38:35;100341.28;;;15.11;39.48
66857;BME280;53766;50.280;19.160;2022-12-18T11:41:21;100341.28;;;15.11;39.53
66857;BME280;53766;50.280;19.160;2022-12-18T11:43:56;100348.38;;;15.11;39.59
66857;BME280;53766;50.280;19.160;2022-12-18T11:46:34;100348.53;;;15.09;39.53
66857;BME280;53766;50.280;19.160;2022-12-18T11:49:11;100342.53;;;15.07;39.55
66857;BME280;53766;50.280;19.160;2022-12-18T11:51:49;100343.22;;;15.09;39.75
66857;BME280;53766;50.280;19.160;2022-12-18T11:54:19;100346.84;;;15.08;39.42
66857;BME280;53766;50.280;19.160;2022-12-18T11:56:51;100345.19;;;15.07;39.69
66857;BME280;53766;50.280;19.160;2022-12-18T12:13:17;100352.44;;;15.05;39.48
66857;BME280;53766;50.280;19.160;2022-12-18T12:16:29;100357.75;;;15.05;39.54
66857;BME280;53766;50.280;19.160;2022-12-18T12:21:38;100360.41;;;15.05;39.08
66857;BME280;53766;50.280;19.160;2022-12-18T12:28:05;100359.41;;;15.06;39.37
66857;BME280;53766;50.280;19.160;2022-12-18T12:30:24;100351.56;;;15.05;39.31
66857;BME280;53766;50.280;19.160;2022-12-18T12:38:34;100367.50;;;15.05;39.30
66857;BME280;53766;50.280;19.160;2022-12-18T12:41:09;100368.59;;;15.02;39.15
66857;BME280;53766;50.280;19.160;2022-12-18T12:44:07;100372.97;;;15.03;39.14
66857;BME280;53766;50.280;19.160;2022-12-18T12:46:39;100373.78;;;15.04;39.05
66857;BME280;53766;50.280;19.160;2022-12-18T12:49:20;100366.94;;;15.01;39.29
66857;BME280;53766;50.280;19.160;2022-12-18T12:52:12;100373.91;;;15.02;39.00
66857;BME280;53766;50.280;19.160;2022-12-18T12:54:43;100372.25;;;15.01;39.08
66857;BME280;53766;50.280;19.160;2022-12-18T12:57:23;100367.66;;;15.03;38.96
66857;BME280;53766;50.280;19.160;2022-12-18T13:00:04;100373.09;;;15.01;38.91
66857;BME280;53766;50.280;19.160;2022-12-18T13:05:38;100385.50;;;15.01;39.17
66857;BME280;53766;50.280;19.160;2022-12-18T13:08:09;100377.56;;;15.01;38.97
66857;BME280;53766;50.280;19.160;2022-12-18T13:10:40;100380.22;;;15.01;38.82
66857;BME280;53766;50.280;19.160;2022-12-18T13:15:48;100391.38;;;15.05;38.99
66857;BME280;53766;50.280;19.160;2022-12-18T13:23:36;100395.59;;;15.07;38.90
66857;BME280;53766;50.280;19.160;2022-12-18T13:33:50;100393.78;;;15.08;39.04
66857;BME280;53766;50.280;19.160;2022-12-18T13:36:38;100394.59;;;15.08;39.05
66857;BME280;53766;50.280;19.160;2022-12-18T13:39:33;100396.56;;;15.06;38.98
66857;BME280;53766;50.280;19.160;2022-12-18T13:44:33;100407.03;;;15.08;38.99
66857;BME280;53766;50.280;19.160;2022-12-18T13:47:34;100407.88;;;15.08;38.67
66857;BME280;53766;50.280;19.160;2022-12-18T13:50:22;100403.56;;;15.07;38.92
66857;BME280;53766;50.280;19.160;2022-12-18T13:52:58;100410.53;;;15.08;38.89
66857;BME280;53766;50.280;19.160;2022-12-18T13:55:26;100411.38;;;15.09;38.71
66857;BME280;53766;50.280;19.160;2022-12-18T13:58:04;100416.81;;;15.07;38.91
66857;BME280;53766;50.280;19.160;2022-12-18T14:00:32;100415.97;;;15.07;38.86
66857;BME280;53766;50.280;19.160;2022-12-18T14:02:59;100421.44;;;15.05;38.76
66857;BME280;53766;50.280;19.160;2022-12-18T14:05:30;100412.47;;;15.06;39.03
66857;BME280;53766;50.280;19.160;2022-12-18T14:08:05;100411.66;;;15.06;38.61
66857;BME280;53766;50.280;19.160;2022-12-18T14:10:35;100413.47;;;15.05;38.59
66857;BME280;53766;50.280;19.160;2022-12-18T14:13:37;100414.44;;;15.04;38.86
66857;BME280;53766;50.280;19.160;2022-12-18T14:16:13;100409.94;;;15.05;38.45
66857;BME280;53766;50.280;19.160;2022-12-18T14:18:55;100409.94;;;15.05;38.62
66857;BME280;53766;50.280;19.160;2022-12-18T14:21:45;100407.44;;;15.03;38.56
66857;BME280;53766;50.280;19.160;2022-12-18T14:24:17;100405.75;;;15.02;38.48
66857;BME280;53766;50.280;19.160;2022-12-18T14:26:47;100398.66;;;15.02;38.70
66857;BME280;53766;50.280;19.160;2022-12-18T14:29:28;100410.34;;;15.00;38.83
66857;BME280;53766;50.280;19.160;2022-12-18T14:32:19;100404.09;;;15.01;38.74
66857;BME280;53766;50.280;19.160;2022-12-18T14:34:50;100414.81;;;14.99;38.56